createdAt,value
2022-09-20T00:01:04.453Z,6.37
2022-09-20T00:03:31.230Z,6.50
2022-09-20T00:06:01.312Z,6.40
2022-09-20T00:08:28.213Z,6.60
2022-09-20T00:11:06.588Z,7.37
2022-09-20T00:13:34.189Z,6.40
2022-09-20T00:16:04.532Z,6.50
2022-09-20T00:18:31.276Z,7.43
2022-09-20T00:20:57.925Z,6.63
2022-09-20T00:23:24.722Z,8.00
2022-09-20T00:25:59.274Z,6.60
2022-09-20T00:28:27.178Z,7.60
2022-09-20T00:30:55.243Z,7.90
2022-09-20T00:33:24.111Z,7.70
2022-09-20T00:35:51.527Z,7.27
2022-09-20T00:38:18.163Z,7.43
2022-09-20T00:40:45.180Z,7.87
2022-09-20T00:43:18.412Z,8.47
2022-09-20T00:45:49.350Z,7.27
2022-09-20T00:48:23.188Z,7.77
2022-09-20T00:50:54.780Z,7.33
2022-09-20T00:53:31.974Z,7.60
2022-09-20T00:56:03.344Z,7.83
2022-09-20T00:58:33.390Z,8.43
2022-09-20T01:01:00.282Z,6.73
2022-09-20T01:03:31.329Z,7.20
2022-09-20T01:06:01.361Z,7.23
2022-09-20T01:08:28.344Z,6.07
2022-09-20T01:10:55.184Z,6.60
2022-09-20T01:13:21.800Z,6.60
2022-09-20T01:15:50.461Z,5.63
2022-09-20T01:18:19.818Z,6.53
2022-09-20T01:20:48.298Z,5.30
2022-09-20T01:23:29.684Z,6.87
2022-09-20T01:26:02.238Z,6.43
2022-09-20T01:28:29.918Z,6.03
2022-09-20T01:31:24.441Z,6.20
2022-09-20T01:34:11.157Z,5.90
2022-09-20T01:36:45.404Z,6.20
2022-09-20T01:39:33.518Z,7.30
2022-09-20T01:42:12.078Z,6.30
2022-09-20T01:44:57.516Z,6.40
2022-09-20T01:47:54.420Z,6.63
2022-09-20T01:50:34.205Z,6.93
2022-09-20T01:53:19.267Z,6.60
2022-09-20T01:55:55.323Z,6.63
2022-09-20T01:59:01.928Z,5.90
2022-09-20T02:01:54.339Z,5.97
2022-09-20T02:04:30.025Z,5.67
2022-09-20T02:07:14.891Z,5.30
2022-09-20T02:10:00.356Z,5.63
2022-09-20T02:12:33.859Z,5.17
2022-09-20T02:15:14.428Z,5.33
2022-09-20T02:18:09.403Z,4.80
2022-09-20T02:20:51.110Z,5.00
2022-09-20T02:23:43.212Z,4.60
2022-09-20T02:26:19.522Z,4.97
2022-09-20T02:29:18.536Z,4.53
2022-09-20T02:32:04.208Z,5.17
2022-09-20T02:34:39.804Z,5.73
2022-09-20T02:37:36.751Z,4.50
2022-09-20T02:40:41.287Z,4.63
2022-09-20T02:43:25.485Z,4.30
2022-09-20T02:46:12.177Z,4.13
2022-09-20T02:49:08.299Z,5.40
2022-09-20T02:51:58.149Z,4.90
2022-09-20T02:55:09.369Z,4.57
2022-09-20T02:57:50.958Z,4.60
2022-09-20T03:00:42.219Z,3.70
2022-09-20T03:03:28.819Z,3.97
2022-09-20T03:06:02.893Z,4.80
2022-09-20T03:08:50.531Z,4.23
2022-09-20T03:12:00.992Z,4.27
2022-09-20T03:14:53.924Z,4.60
2022-09-20T03:17:49.952Z,4.80
2022-09-20T03:20:22.747Z,4.50
2022-09-20T03:23:10.584Z,4.50
2022-09-20T03:26:07.992Z,4.57
2022-09-20T03:28:55.951Z,4.70
2022-09-20T03:31:36.724Z,4.73
2022-09-20T03:34:28.027Z,4.27
2022-09-20T03:37:16.511Z,4.93
2022-09-20T03:39:54.839Z,4.50
2022-09-20T03:42:29.836Z,4.50
2022-09-20T03:45:17.532Z,4.90
2022-09-20T03:48:13.499Z,3.53
2022-09-20T03:51:05.753Z,5.07
2022-09-20T03:53:57.253Z,4.87
2022-09-20T03:56:29.353Z,4.80
2022-09-20T03:59:22.963Z,3.93
2022-09-20T04:02:09.846Z,3.90
2022-09-20T04:04:50.936Z,3.77
2022-09-20T04:07:47.966Z,3.83
2022-09-20T04:10:46.952Z,4.77
2022-09-20T04:13:34.249Z,4.53
2022-09-20T04:16:16.075Z,4.20
2022-09-20T04:19:09.644Z,4.17
2022-09-20T04:21:55.614Z,4.33
2022-09-20T04:24:44.527Z,4.40
2022-09-20T04:27:20.229Z,4.03
2022-09-20T04:30:05.426Z,3.70
2022-09-20T04:32:49.527Z,3.43
2022-09-20T04:35:35.030Z,3.50
2022-09-20T04:38:06.150Z,3.17
2022-09-20T04:40:54.752Z,3.73
2022-09-20T04:43:52.296Z,3.63
2022-09-20T04:46:40.676Z,3.27
2022-09-20T04:49:19.582Z,3.53
2022-09-20T04:52:23.265Z,3.50
2022-09-20T04:55:10.255Z,3.13
2022-09-20T04:58:01.482Z,3.77
2022-09-20T05:00:52.352Z,3.10
2022-09-20T05:03:54.370Z,3.53
2022-09-20T05:06:58.804Z,3.40
2022-09-20T05:09:50.172Z,2.90
2022-09-20T05:12:48.734Z,3.37
2022-09-20T05:15:36.304Z,3.17
2022-09-20T05:18:12.758Z,3.20
2022-09-20T05:20:42.499Z,3.73
2022-09-20T05:23:46.902Z,3.53
2022-09-20T05:26:25.624Z,3.07
2022-09-20T05:28:53.373Z,3.30
2022-09-20T05:31:50.900Z,3.50
2022-09-20T05:34:43.692Z,2.87
2022-09-20T05:37:31.449Z,3.43
2022-09-20T05:40:19.373Z,4.10
2022-09-20T05:43:11.353Z,3.43
2022-09-20T05:46:01.069Z,3.43
2022-09-20T05:48:39.907Z,3.50
2022-09-20T05:51:06.565Z,3.03
2022-09-20T05:53:51.368Z,3.50
2022-09-20T05:56:36.627Z,3.43
2022-09-20T05:59:16.147Z,3.40
2022-09-20T06:01:58.109Z,3.83
2022-09-20T06:04:42.083Z,3.23
2022-09-20T06:07:36.555Z,3.70
2022-09-20T06:10:21.213Z,3.93
2022-09-20T06:13:09.243Z,3.97
2022-09-20T06:15:50.724Z,3.33
2022-09-20T06:18:25.959Z,4.23
2022-09-20T06:21:09.076Z,3.90
2022-09-20T06:23:36.875Z,3.50
2022-09-20T06:26:17.742Z,3.83
2022-09-20T06:28:56.371Z,3.90
2022-09-20T06:31:25.433Z,3.77
2022-09-20T06:33:55.220Z,3.93
2022-09-20T06:36:52.702Z,4.27
2022-09-20T06:40:12.211Z,4.53
2022-09-20T06:42:39.127Z,4.70
2022-09-20T06:45:06.246Z,3.80
2022-09-20T06:47:35.727Z,3.93
2022-09-20T06:50:06.137Z,3.97
2022-09-20T06:52:34.529Z,4.27
2022-09-20T06:55:01.752Z,4.20
2022-09-20T06:57:35.923Z,3.80
2022-09-20T07:00:02.768Z,3.37
2022-09-20T07:02:29.529Z,4.67
2022-09-20T07:04:59.266Z,3.60
2022-09-20T07:07:26.146Z,3.97
2022-09-20T07:09:52.930Z,3.90
2022-09-20T07:12:19.651Z,3.90
2022-09-20T07:14:46.398Z,4.40
2022-09-20T07:17:14.667Z,4.37
2022-09-20T07:19:41.486Z,4.07
2022-09-20T07:22:08.228Z,3.90
2022-09-20T07:24:34.958Z,4.30
2022-09-20T07:27:05.046Z,4.03
2022-09-20T07:29:31.948Z,4.30
2022-09-20T07:31:58.731Z,3.80
2022-09-20T07:34:27.139Z,4.13
2022-09-20T07:36:53.834Z,3.07
2022-09-20T07:39:20.636Z,3.67
2022-09-20T07:41:50.537Z,3.70
2022-09-20T07:44:27.947Z,3.80
2022-09-20T07:46:57.935Z,3.67
2022-09-20T07:49:26.452Z,3.80
2022-09-20T07:51:54.268Z,4.27
2022-09-20T07:54:21.066Z,3.67
2022-09-20T07:56:47.970Z,4.00
2022-09-20T07:59:15.357Z,3.43
2022-09-20T08:01:42.507Z,3.97
2022-09-20T08:04:09.969Z,4.30
2022-09-20T08:06:38.808Z,4.07
2022-09-20T08:09:10.764Z,4.20
2022-09-20T08:11:39.498Z,3.13
2022-09-20T08:14:08.853Z,2.90
2022-09-20T08:16:45.599Z,2.87
2022-09-20T08:19:17.165Z,3.10
2022-09-20T08:21:44.356Z,3.80
2022-09-20T08:24:11.598Z,3.00
2022-09-20T08:26:38.324Z,2.80
2022-09-20T08:29:08.454Z,3.20
2022-09-20T08:31:38.216Z,3.40
2022-09-20T08:34:07.170Z,3.37
2022-09-20T08:36:37.311Z,2.53
2022-09-20T08:41:57.070Z,2.03
2022-09-20T08:45:00.009Z,2.67
2022-09-20T08:47:36.715Z,2.50
2022-09-20T08:50:09.515Z,2.50
2022-09-20T08:52:39.861Z,2.50
2022-09-20T08:55:18.800Z,2.70
2022-09-20T08:57:55.478Z,2.27
2022-09-20T09:00:30.336Z,2.67
2022-09-20T09:03:00.205Z,2.37
2022-09-20T09:05:44.497Z,1.80
2022-09-20T09:08:44.652Z,2.27
2022-09-20T09:11:15.370Z,2.00
2022-09-20T09:14:01.524Z,2.80
2022-09-20T09:16:35.312Z,2.33
2022-09-20T09:19:33.261Z,2.50
2022-09-20T09:22:03.320Z,2.00
2022-09-20T09:24:33.404Z,1.83
2022-09-20T09:27:19.346Z,2.20
2022-09-20T09:29:51.061Z,1.80
2022-09-20T09:32:29.115Z,2.70
2022-09-20T09:34:57.329Z,2.10
2022-09-20T09:37:29.190Z,2.63
2022-09-20T09:40:22.680Z,2.50
2022-09-20T09:42:51.166Z,2.23
2022-09-20T09:45:44.137Z,2.37
2022-09-20T09:48:24.875Z,1.70
2022-09-20T09:51:12.644Z,2.50
2022-09-20T09:53:40.064Z,2.40
2022-09-20T09:56:14.002Z,4.20
2022-09-20T09:59:19.526Z,3.17
2022-09-20T10:02:13.146Z,2.93
2022-09-20T10:04:51.911Z,2.00
2022-09-20T10:07:24.493Z,2.60
2022-09-20T10:10:07.364Z,2.13
2022-09-20T10:12:36.922Z,2.73
2022-09-20T10:15:57.926Z,1.97
2022-09-20T10:18:45.728Z,2.03
2022-09-20T10:21:22.878Z,2.70
2022-09-20T10:24:15.318Z,2.10
2022-09-20T10:27:13.873Z,1.60
2022-09-20T10:30:01.834Z,1.97
2022-09-20T10:32:55.201Z,1.70
2022-09-20T10:36:02.722Z,2.20
2022-09-20T10:38:55.376Z,2.03
2022-09-20T10:41:58.938Z,2.43
2022-09-20T10:44:49.508Z,2.33
2022-09-20T10:47:25.131Z,2.70
2022-09-20T10:50:04.984Z,2.03
2022-09-20T10:53:13.584Z,2.33
2022-09-20T10:56:26.739Z,2.70
2022-09-20T10:59:23.993Z,1.80
2022-09-20T11:02:13.808Z,2.27
2022-09-20T11:05:14.686Z,1.73
2022-09-20T11:07:53.636Z,1.90
2022-09-20T11:10:20.612Z,2.00
2022-09-20T11:12:50.837Z,1.77
2022-09-20T11:15:46.874Z,2.10
2022-09-20T11:18:23.558Z,2.70
2022-09-20T11:21:08.327Z,2.10
2022-09-20T11:23:45.361Z,1.77
2022-09-20T11:26:21.587Z,1.70
2022-09-20T11:28:55.982Z,2.83
2022-09-20T11:31:28.220Z,1.90
2022-09-20T11:34:04.964Z,1.93
2022-09-20T11:36:59.085Z,2.33
2022-09-20T11:39:35.567Z,1.60
2022-09-20T11:42:05.160Z,1.73
2022-09-20T11:44:32.565Z,1.70
2022-09-20T11:47:03.350Z,1.77
2022-09-20T11:49:34.609Z,1.50
2022-09-20T11:52:19.699Z,1.63
2022-09-20T11:55:11.227Z,1.63
2022-09-20T11:57:38.655Z,1.87
2022-09-20T12:00:08.158Z,1.60
2022-09-20T12:02:52.880Z,2.30
2022-09-20T12:05:45.864Z,1.83
2022-09-20T12:08:25.622Z,1.50
2022-09-20T12:11:11.246Z,1.60
2022-09-20T12:13:43.210Z,1.60
2022-09-20T12:16:36.415Z,1.87
2022-09-20T12:19:07.055Z,1.90
2022-09-20T12:21:59.821Z,1.40
2022-09-20T12:24:31.066Z,1.73
2022-09-20T12:27:41.097Z,1.30
2022-09-20T12:30:21.768Z,1.67
2022-09-20T12:32:56.443Z,1.20
2022-09-20T12:35:44.499Z,1.40
2022-09-20T12:38:19.995Z,1.60
2022-09-20T12:41:07.953Z,2.07
2022-09-20T12:43:38.607Z,1.90
2022-09-20T12:46:11.320Z,1.70
2022-09-20T12:48:38.979Z,1.40
2022-09-20T12:51:50.470Z,1.43
2022-09-20T12:54:17.655Z,1.40
2022-09-20T12:56:46.688Z,1.33
2022-09-20T12:59:27.195Z,1.30
2022-09-20T13:01:54.048Z,1.47
2022-09-20T13:04:40.306Z,1.97
2022-09-20T13:07:42.689Z,1.30
2022-09-20T13:10:23.931Z,1.40
2022-09-20T13:12:56.250Z,1.67
2022-09-20T13:15:23.296Z,1.40
2022-09-20T13:17:55.003Z,1.50
2022-09-20T13:20:25.512Z,1.50
2022-09-20T13:22:58.238Z,1.47
2022-09-20T13:25:28.395Z,1.50
2022-09-20T13:28:07.943Z,1.77
2022-09-20T13:30:35.212Z,1.40
2022-09-20T13:33:25.495Z,1.50
2022-09-20T13:35:58.716Z,1.77
2022-09-20T13:38:30.655Z,2.00
2022-09-20T13:41:10.518Z,1.93
2022-09-20T13:43:45.272Z,1.90
2022-09-20T13:46:13.401Z,2.30
2022-09-20T13:48:40.725Z,1.77
2022-09-20T13:51:25.755Z,1.87
2022-09-20T13:53:52.807Z,1.83
2022-09-20T13:56:21.489Z,1.50
2022-09-20T13:58:49.672Z,1.90
2022-09-20T14:01:32.382Z,1.80
2022-09-20T14:04:07.161Z,1.47
2022-09-20T14:06:34.837Z,1.73
2022-09-20T14:09:08.337Z,1.97
2022-09-20T14:11:38.327Z,1.77
2022-09-20T14:14:07.899Z,2.00
2022-09-20T14:16:46.795Z,1.80
2022-09-20T14:19:20.261Z,2.10
2022-09-20T14:21:48.496Z,2.30
2022-09-20T14:24:15.190Z,1.80
2022-09-20T14:26:43.603Z,2.57
2022-09-20T14:29:40.109Z,1.70
2022-09-20T14:32:24.669Z,1.80
2022-09-20T14:35:19.191Z,1.67
2022-09-20T14:37:51.026Z,1.60
2022-09-20T14:40:30.352Z,2.07
2022-09-20T14:43:05.277Z,2.00
2022-09-20T14:45:40.293Z,2.03
2022-09-20T14:48:29.419Z,2.07
2022-09-20T14:51:25.206Z,1.90
2022-09-20T14:54:13.463Z,1.87
2022-09-20T14:56:43.756Z,1.60
2022-09-20T14:59:21.311Z,1.77
2022-09-20T15:02:08.848Z,1.97
2022-09-20T15:04:37.883Z,2.10
2022-09-20T15:07:07.149Z,1.90
2022-09-20T15:09:35.195Z,1.67
2022-09-20T15:12:10.774Z,1.80
2022-09-20T15:14:38.266Z,2.00
2022-09-20T15:17:05.505Z,1.90
2022-09-20T15:19:32.161Z,1.60
2022-09-20T15:21:59.715Z,1.87
2022-09-20T15:24:26.556Z,1.93
2022-09-20T15:26:54.068Z,2.07
2022-09-20T15:29:20.838Z,1.93
2022-09-20T15:31:48.702Z,2.00
2022-09-20T15:34:16.195Z,1.53
2022-09-20T15:36:43.037Z,1.53
2022-09-20T15:39:10.419Z,1.30
2022-09-20T15:41:37.591Z,1.40
2022-09-20T15:44:04.909Z,1.50
2022-09-20T15:46:32.182Z,1.47
2022-09-20T15:49:00.992Z,1.40
2022-09-20T15:51:30.411Z,1.50
2022-09-20T15:54:00.182Z,1.60
2022-09-20T15:56:29.071Z,1.70
2022-09-20T15:59:01.112Z,2.07
2022-09-20T16:01:39.798Z,1.83
2022-09-20T16:04:12.386Z,1.67
2022-09-20T16:06:41.026Z,1.80
2022-09-20T16:09:08.894Z,1.37
2022-09-20T16:11:36.421Z,1.70
2022-09-20T16:14:04.065Z,1.90
2022-09-20T16:16:35.037Z,1.90
2022-09-20T16:19:20.151Z,1.60
2022-09-20T16:21:57.637Z,1.90
2022-09-20T16:24:27.609Z,1.57
2022-09-20T16:26:54.800Z,1.47
2022-09-20T16:29:25.977Z,1.50
2022-09-20T16:31:54.351Z,1.73
2022-09-20T16:34:22.383Z,1.90
2022-09-20T16:36:51.477Z,1.80
2022-09-20T16:39:19.572Z,2.17
2022-09-20T16:41:48.718Z,2.30
2022-09-20T16:44:16.246Z,1.70
2022-09-20T16:46:44.535Z,1.80
2022-09-20T16:49:13.074Z,2.37
2022-09-20T16:51:41.544Z,1.80
2022-09-20T16:54:12.244Z,2.10
2022-09-20T16:56:45.037Z,2.40
2022-09-20T16:59:13.115Z,2.30
2022-09-20T17:01:40.845Z,2.27
2022-09-20T17:04:08.597Z,2.37
2022-09-20T17:06:37.523Z,2.50
2022-09-20T17:09:06.155Z,2.20
2022-09-20T17:11:35.999Z,2.07
2022-09-20T17:14:03.007Z,2.10
2022-09-20T17:16:34.016Z,2.67
2022-09-20T17:19:03.200Z,2.40
2022-09-20T17:21:30.442Z,2.53
2022-09-20T17:23:59.044Z,2.67
2022-09-20T17:26:25.837Z,2.63
2022-09-20T17:28:56.443Z,2.30
2022-09-20T17:31:28.734Z,2.90
2022-09-20T17:33:59.966Z,3.07
2022-09-20T17:36:32.936Z,2.47
2022-09-20T17:39:04.162Z,3.10
2022-09-20T17:41:32.599Z,2.90
2022-09-20T17:44:02.537Z,3.07
2022-09-20T17:46:31.728Z,3.77
2022-09-20T17:49:01.204Z,3.20
2022-09-20T17:51:31.133Z,3.50
2022-09-20T17:53:58.514Z,3.10
2022-09-20T17:56:30.865Z,3.27
2022-09-20T17:58:59.370Z,3.10
2022-09-20T18:01:27.803Z,3.30
2022-09-20T18:03:56.531Z,3.53
2022-09-20T18:06:28.773Z,3.43
2022-09-20T18:09:03.557Z,3.10
2022-09-20T18:11:32.206Z,3.30
2022-09-20T18:14:00.478Z,3.53
2022-09-20T18:16:27.615Z,3.57
2022-09-20T18:18:54.915Z,3.97
2022-09-20T18:21:26.567Z,2.97
2022-09-20T18:23:54.017Z,5.93
2022-09-20T18:26:22.667Z,3.60
2022-09-20T18:29:11.275Z,3.40
2022-09-20T18:31:46.953Z,4.17
2022-09-20T18:34:25.451Z,3.47
2022-09-20T18:36:54.960Z,3.10
2022-09-20T18:39:25.971Z,4.00
2022-09-20T18:41:53.483Z,4.40
2022-09-20T18:44:21.421Z,3.73
2022-09-20T18:46:48.892Z,4.03
2022-09-20T18:49:16.956Z,4.30
2022-09-20T18:51:44.758Z,4.53
2022-09-20T18:54:11.970Z,4.00
2022-09-20T18:56:41.449Z,4.23
2022-09-20T18:59:15.487Z,4.40
2022-09-20T19:01:54.995Z,3.87
2022-09-20T19:04:29.843Z,3.40
2022-09-20T19:07:15.362Z,3.20
2022-09-20T19:09:51.435Z,3.63
2022-09-20T19:12:25.782Z,3.67
2022-09-20T19:15:19.965Z,4.17
2022-09-20T19:18:02.072Z,3.30
2022-09-20T19:20:34.881Z,4.27
2022-09-20T19:23:13.459Z,3.60
2022-09-20T19:25:45.267Z,4.10
2022-09-20T19:28:14.340Z,3.80
2022-09-20T19:30:42.812Z,4.47
2022-09-20T19:33:17.883Z,4.10
2022-09-20T19:35:49.976Z,4.37
2022-09-20T19:38:29.098Z,4.50
2022-09-20T19:40:57.025Z,3.97
2022-09-20T19:43:53.250Z,4.03
2022-09-20T19:47:01.791Z,4.00
2022-09-20T19:49:47.405Z,4.80
2022-09-20T19:52:15.088Z,4.40
2022-09-20T19:54:46.590Z,4.83
2022-09-20T19:57:23.126Z,4.97
2022-09-20T19:59:50.960Z,4.07
2022-09-20T20:02:18.582Z,4.80
2022-09-20T20:04:46.139Z,4.80
2022-09-20T20:07:37.909Z,5.00
2022-09-20T20:10:21.249Z,5.07
2022-09-20T20:13:44.625Z,5.20
2022-09-20T20:16:15.623Z,5.40
2022-09-20T20:18:56.912Z,5.13
2022-09-20T20:21:38.381Z,4.93
2022-09-20T20:24:37.544Z,4.70
2022-09-20T20:27:04.737Z,5.30
2022-09-20T20:29:31.490Z,5.83
2022-09-20T20:31:58.234Z,5.00
2022-09-20T20:34:26.596Z,6.60
2022-09-20T20:37:00.355Z,7.27
2022-09-20T20:39:31.501Z,6.30
2022-09-20T20:42:02.343Z,7.33
2022-09-20T20:44:30.401Z,5.80
2022-09-20T20:46:57.199Z,6.23
2022-09-20T20:49:24.695Z,6.23
2022-09-20T20:51:51.452Z,5.03
2022-09-20T20:54:18.369Z,6.20
2022-09-20T20:56:45.041Z,6.10
2022-09-20T20:59:12.199Z,6.53
2022-09-20T21:01:45.083Z,6.50
2022-09-20T21:04:12.961Z,5.73
2022-09-20T21:06:41.501Z,6.13
2022-09-20T21:09:10.666Z,5.97
2022-09-20T21:11:40.269Z,6.67
2022-09-20T21:14:08.083Z,6.77
2022-09-20T21:16:42.538Z,7.03
2022-09-20T21:19:13.098Z,6.10
2022-09-20T21:21:44.793Z,6.77
2022-09-20T21:24:15.524Z,6.40
2022-09-20T21:26:42.949Z,6.67
2022-09-20T21:29:14.859Z,6.40
2022-09-20T21:31:46.724Z,6.70
2022-09-20T21:34:15.507Z,6.93
2022-09-20T21:36:43.974Z,6.47
2022-09-20T21:39:11.027Z,7.00
2022-09-20T21:41:39.043Z,7.23
2022-09-20T21:44:07.617Z,7.03
2022-09-20T21:46:40.323Z,6.80
2022-09-20T21:49:09.655Z,7.30
2022-09-20T21:51:37.421Z,7.33
2022-09-20T21:54:05.471Z,7.07
2022-09-20T21:56:34.987Z,6.77
2022-09-20T21:59:04.125Z,8.10
2022-09-20T22:01:36.148Z,8.57
2022-09-20T22:04:11.047Z,7.73
2022-09-20T22:06:42.760Z,7.40
2022-09-20T22:09:14.911Z,8.43
2022-09-20T22:11:44.666Z,8.17
2022-09-20T22:14:13.498Z,7.93
2022-09-20T22:16:41.927Z,7.80
2022-09-20T22:19:11.217Z,8.37
2022-09-20T22:21:40.498Z,7.43
2022-09-20T22:24:09.308Z,7.77
2022-09-20T22:26:44.036Z,7.37
2022-09-20T22:29:11.094Z,7.17
2022-09-20T22:31:45.548Z,7.40
2022-09-20T22:34:21.009Z,7.00
2022-09-20T22:36:48.218Z,6.80
2022-09-20T22:39:15.528Z,6.50
2022-09-20T22:41:42.971Z,6.90
2022-09-20T22:44:10.355Z,6.10
2022-09-20T22:46:38.349Z,7.40
2022-09-20T22:49:06.150Z,6.67
2022-09-20T22:51:33.491Z,6.57
2022-09-20T22:54:03.973Z,7.50
2022-09-20T22:56:31.402Z,7.03
2022-09-20T22:59:07.583Z,7.40
2022-09-20T23:01:46.187Z,6.97
2022-09-20T23:04:15.957Z,7.30
2022-09-20T23:06:46.893Z,7.13
2022-09-20T23:09:15.752Z,6.60
2022-09-20T23:11:43.251Z,7.20
2022-09-20T23:14:16.146Z,6.53
2022-09-20T23:16:43.500Z,6.87
2022-09-20T23:19:11.799Z,7.83
2022-09-20T23:21:39.747Z,7.00
2022-09-20T23:24:08.651Z,7.10
2022-09-20T23:26:37.132Z,7.30
2022-09-20T23:29:07.047Z,7.40
2022-09-20T23:31:36.409Z,7.37
2022-09-20T23:34:05.266Z,7.17
2022-09-20T23:36:35.242Z,7.70
2022-09-20T23:39:02.098Z,6.93
2022-09-20T23:41:29.421Z,7.93
2022-09-20T23:43:56.533Z,7.93
2022-09-20T23:46:26.217Z,6.40
2022-09-20T23:48:53.103Z,6.20
2022-09-20T23:51:22.540Z,6.73
2022-09-20T23:53:50.024Z,6.90
2022-09-20T23:56:17.206Z,6.20
2022-09-20T23:58:45.021Z,6.63
